Tiempo atmosférico en la estación meteorológica de Jimena de la Frontera, Cádiz (50 m.)



Fecha
DESCASC
Temp. máxima en grados centígrados (hora)
DESCASC
Temp. mínima en grados centígrados (hora)
DESCASC
Temp. media en grados centígrados
DESCASC
Racha de viento máxima en m/sg (hora)
DESCASC
Velocidad máxima media en intervalos de 10 minutos(hora)
DESCASC
Precipitaciones diarias en mm
DESCASC
Precipitaciones de 00:00 a 06:00 en mm
DESCASC
Precipitaciones de 06:00 a 12:00 en mm
DESCASC
Precipitaciones de 12:00 a 18:00 en mm
DESCASC
Precipitaciones de 18:00 a 24:00 en mm
DESCASC
17-09-2020 28.4 (13:30) 23 (00:00) 25.7 11.39 (14:30) 6.11 (15:40) 0 0 0 0 0
16-09-2020 28.6 (14:30) 17 (08:10) 22.8 9.17 (15:50) 5 (15:50) 0 0 0 0 0
15-09-2020 29.4 (15:00) 17.9 (08:10) 23.6 10.56 (14:00) 5.83 (15:30) 0 0 0 0 0
14-09-2020 27.8 (12:50) 23.6 (00:00) 25.7 13.06 (13:00) 7.22 (16:40) 0 0 0 0 0
13-09-2020 29.7 (13:20) 23.8 (00:00) 26.8 14.72 (14:30) 8.61 (13:30) 0 0 0 0 0
12-09-2020 30.6 (15:10) 14.1 (00:00) 22.4 14.17 (14:50) 8.33 (13:30) 0 0 0 0 0
11-09-2020 28.2 (15:20) 12.9 (00:00) 20.6 12.78 (17:40) 6.67 (17:40) 0 0 0 0 0
10-09-2020 30 (14:50) 13.2 (00:00) 21.6 7.5 (16:00) 4.44 (15:50) 0 0 0 0 0
09-09-2020 27.8 (15:10) 17.3 (00:00) 22.5 11.94 (14:10) 7.5 (13:50) 0 0 0 0 0
08-09-2020 26.9 (13:00) 22.3 (00:00) 24.6 15.28 (11:40) 9.44 (14:20) 0 0 0 0 0
07-09-2020 33.6 (14:40) 14.4 (08:00) 24 8.06 (15:40) 5 (15:40) 0 0 0 0 0
06-09-2020 27.9 (15:20) 15 (00:00) 21.4 14.44 (14:40) 8.06 (14:40) 0 0 0 0 0
05-09-2020 27.9 (15:30) 16 (00:00) 21.9 13.61 (12:30) 7.5 (13:30) 0 0 0 0 0
04-09-2020 27.7 (15:50) 22.6 (00:00) 25.2 16.11 (14:10) 8.61 (16:30) 0 0 0 0 0
03-09-2020 28.6 (15:50) 15.7 (00:00) 22.2 17.5 (17:00) 10.28 (14:00) 0 0 0 0 0
02-09-2020 28.2 (15:10) 13.7 (00:00) 21 13.89 (18:00) 7.78 (18:10) 0 0 0 0 0
01-09-2020 28.3 (17:10) 12.6 (00:00) 20.4 7.78 (13:20) 5 (13:30) 0 0 0 0 0
31-08-2020 28.3 (14:40) 15.3 (00:00) 21.8 16.11 (11:30) 9.44 (16:00) 0 0 0 0 0
30-08-2020 29.3 (14:50) 13.7 (00:00) 21.5 16.39 (12:30) 8.33 (12:20) 0 0 0 0 0
29-08-2020 29.7 (18:40) 17.8 (00:00) 23.8 12.22 (13:50) 8.06 (13:50) 0 0 0 0 0
28-08-2020 32.4 (16:50) 15.5 (00:00) 24 13.06 (17:30) 7.22 (14:10) 0 0 0 0 0
27-08-2020 35.1 (17:20) 17.3 (00:00) 26.2 6.94 (16:20) 4.17 (15:40) 0 0 0 0 0
26-08-2020 33.4 (17:10) 16.7 (00:00) 25.1 6.67 (14:20) 4.17 (13:20) 0 0 0 0 0
25-08-2020 31 (15:40) 19.5 (00:00) 25.3 12.22 (15:50) 6.67 (13:50) 0 0 0 0 0
24-08-2020 30.9 (15:20) 19.6 (00:00) 25.3 13.33 (14:30) 7.78 (16:20) 0 0 0 0 0
23-08-2020 32.5 (12:00) 16.6 (00:00) 24.6 9.72 (14:30) 6.11 (14:20) 0 0 0 0 0
22-08-2020 39 (16:40) 17.5 (00:00) 28.3 8.89 (19:50) 5 (19:30) 0 0 0 0 0
21-08-2020 37.6 (15:40) 12 (00:00) 24.8 8.61 (16:40) 5.56 (13:40) 0 0 0 0 0
20-08-2020 36.2 (16:40) 14.7 (00:00) 25.5 8.61 (14:30) 5.28 (14:20) 0 0 0 0 0

Gráficas

Temp. máximas Temp. mínimas Temp. medias Precipitaciones Rachas de viento máximas Velocidades máximas media en intervalos de 10 minutos

Datos horarios

Fecha y hora oficial Temperatura (ºC) Velocidad del viento (km/h) Dirección del viento Racha (km/h) Dirección de racha Precipitación (mm) Presión (hPa) Tendencia (hPa) Humedad (%)
2020-09-18 23:00:00 21.2 5 Sudoeste 18 Sudoeste 0 -- -- 82
2020-09-18 22:00:00 22 9 Sudoeste 26 Sudoeste 0 -- -- 78
2020-09-18 21:00:00 22.3 10 Oeste 28 Sudoeste 0 -- -- 74
2020-09-18 20:00:00 23.8 14 Oeste 32 Sudoeste 0 -- -- 69
2020-09-18 19:00:00 25.4 20 Sudoeste 32 Sudoeste 0 -- -- 61
2020-09-18 18:00:00 26.9 17 Sudoeste 32 Oeste 0 -- -- 56
2020-09-18 17:00:00 27.3 21 Sudoeste 36 Oeste 0 -- -- 55
2020-09-18 16:00:00 27.6 21 Sudoeste 47 Sudoeste 0 -- -- 53
2020-09-18 15:00:00 26.6 28 Sudoeste 44 Oeste 0 -- -- 54
2020-09-18 14:00:00 27.5 18 Sur 40 Sur 0 -- -- 57
2020-09-18 13:00:00 26 16 Sudeste 28 Sudeste 0 -- -- 67
2020-09-18 12:00:00 25.2 17 Sudeste 30 Este 0 -- -- 74
2020-09-18 11:00:00 23.5 9 Sudeste 17 Sudeste 0 -- -- 83
2020-09-18 10:00:00 21.2 7 Sur 39 Sudeste 2.2 -- -- 93
2020-09-18 09:00:00 20.7 11 Sudeste 34 Noroeste 5 -- -- 91
2020-09-18 08:00:00 20.5 7 Sudoeste 19 Sudeste 0.2 -- -- 94
2020-09-18 07:00:00 20.6 4 Sudoeste 15 Sudoeste 3 -- -- 93
2020-09-18 06:00:00 20.7 4 Norte 15 Sudeste 0.4 -- -- 91
2020-09-18 05:00:00 21.4 9 Sudeste 28 Sudeste 0 -- -- 84
2020-09-18 04:00:00 22.3 19 Sudeste 33 Sudeste 0 -- -- 76
2020-09-18 03:00:00 22.8 8 Sudeste 22 Sur 0 -- -- 71
2020-09-18 02:00:00 23.5 11 Sur 27 Sur 0 -- -- 69
2020-09-18 01:00:00 24.1 9 Sudeste 29 Sudeste 0 -- -- 65
2020-09-18 00:00:00 24.4 13 Sudeste 28 Este 0 -- -- 62
2020-09-17 23:00:00 24.4 15 Sudeste 22 Sudeste 0 -- -- 62
2020-09-17 22:00:00 24 13 Sudeste 34 Sudeste 0 -- -- 65
2020-09-17 21:00:00 24.7 19 Sudeste 32 Sur 0 -- -- 66
2020-09-17 20:00:00 25.4 13 Sudeste 29 Sudeste 0 -- -- 72
2020-09-17 19:00:00 26.2 17 Sudeste 33 Sudeste 0 -- -- 68
2020-09-17 18:00:00 26.5 17 Sudeste 34 Sudeste 0 -- -- 71
2020-09-17 17:00:00 27.1 14 Sudeste 40 Sudeste 0 -- -- 67
2020-09-17 16:00:00 27.8 18 Sudeste 38 Sudeste 0 -- -- 63
2020-09-17 15:00:00 27.4 22 Sudeste 41 Sur 0 -- -- 68
2020-09-17 14:00:00 27.5 19 Sudeste 32 Este 0 -- -- 67
2020-09-17 13:00:00 27.8 13 Sudeste 31 Sudeste 0 -- -- 67
2020-09-17 12:00:00 27.8 11 Sudeste 24 Este 0 -- -- 65
2020-09-17 11:00:00 25.6 17 Sudeste 28 Sudeste 0 -- -- 75
2020-09-17 10:00:00 24.5 12 Sudeste 35 Sudeste 0 -- -- 80
2020-09-17 09:00:00 23.8 11 Sudeste 26 Este 0 -- -- 83
2020-09-17 08:00:00 23.5 8 Sudeste 18 Sudeste 0 -- -- 84
2020-09-17 07:00:00 23.6 4 Este 17 Sudeste 0 -- -- 82
2020-09-17 06:00:00 23.6 12 Sudeste 24 Este 0 -- -- 82
2020-09-17 05:00:00 23.6 10 Sudeste 22 Sudeste 0 -- -- 83
2020-09-17 04:00:00 23.5 9 Sudeste 21 Sudeste 0 -- -- 82
2020-09-17 03:00:00 23.5 14 Sudeste 33 Sudeste 0 -- -- 83
2020-09-17 02:00:00 23.1 7 Sudeste 18 Sur 0 -- -- 84
2020-09-17 01:00:00 23.2 9 Sur 20 Sudeste 0 -- -- 83
2020-09-17 00:00:00 23 9 Sur 17 Sudeste 0 -- -- 83
2020-09-16 23:00:00 23 5 Sur 13 Este 0 -- -- 82
2020-09-16 22:00:00 23.2 4 Este 13 Sudeste 0 -- -- 82
2020-09-16 21:00:00 23.5 5 Sudeste 14 Sudeste 0 -- -- 80
2020-09-16 20:00:00 24.2 7 Sudeste 21 Sudeste 0 -- -- 76
2020-09-16 19:00:00 25.1 11 Sudeste 27 Sudeste 0 -- -- 72
2020-09-16 18:00:00 26.2 17 Sudeste 30 Sudeste 0 -- -- 62
2020-09-16 17:00:00 27.5 16 Sudeste 31 Sudeste 0 -- -- 56
2020-09-16 16:00:00 27.4 17 Sudeste 33 Sudeste 0 -- -- 61
2020-09-16 15:00:00 28.1 16 Sur 32 Sudeste 0 -- -- 59
2020-09-16 14:00:00 28.1 13 Sudeste 32 Sudeste 0 -- -- 60
2020-09-16 13:00:00 26.2 14 Sudeste 28 Sur 0 -- -- 70
2020-09-16 12:00:00 26.3 12 Sur 24 Sudeste 0 -- -- 69
2020-09-16 11:00:00 25.3 9 Sudeste 16 Este 0 -- -- 74
2020-09-16 10:00:00 21.2 0 Calma 3 Este 0 -- -- 86
2020-09-16 09:00:00 17.7 2 Sur 7 Este 0 -- -- 95
2020-09-16 08:00:00 17.1 2 Este 7 Nordeste 0 -- -- 95
2020-09-16 07:00:00 17.6 3 Este 6 Este 0 -- -- 93
2020-09-16 06:00:00 18.5 3 Nordeste 6 Nordeste 0 -- -- 93
2020-09-16 05:00:00 19 3 Norte 7 Nordeste 0 -- -- 93
2020-09-16 04:00:00 19 2 Nordeste 6 Nordeste 0 -- -- 92
2020-09-16 03:00:00 20.1 4 Este 5 Este 0 -- -- 91
2020-09-16 02:00:00 21 2 Sur 5 Sur 0 -- -- 90
2020-09-16 01:00:00 21.9 2 Nordeste 5 Nordeste 0 -- -- 86
2020-09-16 00:00:00 21.6 3 Este 6 Este 0 -- -- 87
2020-09-15 23:00:00 21.6 3 Nordeste 5 Nordeste 0 -- -- 87
2020-09-15 22:00:00 23 4 Sudoeste 12 Sudeste 0 -- -- 87
2020-09-15 21:00:00 23.9 5 Sudeste 21 Sudeste 0 -- -- 82
2020-09-15 20:00:00 25.2 10 Sudeste 19 Sudeste 0 -- -- 74
2020-09-15 19:00:00 26.7 10 Sur 23 Sur 0 -- -- 69
2020-09-15 18:00:00 27.4 15 Sudeste 29 Sudeste 0 -- -- 66
2020-09-15 17:00:00 28.5 15 Sudeste 30 Sudeste 0 -- -- 61
2020-09-15 16:00:00 28.9 16 Sudeste 36 Sudeste 0 -- -- 58
2020-09-15 15:00:00 29.4 15 Sudeste 36 Este 0 -- -- 56
2020-09-15 14:00:00 28.7 19 Sudeste 38 Sudeste 0 -- -- 58
2020-09-15 13:00:00 27.7 16 Este 32 Este 0 -- -- 62
2020-09-15 12:00:00 25.1 5 Noroeste 8 Norte 0 -- -- 70
2020-09-15 11:00:00 22.5 0 Calma 5 Este 0 -- -- 76
2020-09-15 10:00:00 20.5 2 Norte 5 Norte 0 -- -- 80
2020-09-15 09:00:00 18.7 0 Calma 6 Nordeste 0 -- -- 88
2020-09-15 08:00:00 18 5 Nordeste 8 Nordeste 0 -- -- 90
2020-09-15 07:00:00 18.9 3 Norte 6 Norte 0 -- -- 88
2020-09-15 06:00:00 19 3 Nordeste 5 Nordeste 0 -- -- 89
2020-09-15 05:00:00 19.3 2 Nordeste 8 Nordeste 0 -- -- 90
2020-09-15 04:00:00 19.5 4 Nordeste 9 Norte 0 -- -- 89
2020-09-15 03:00:00 20.6 3 Este 4 Este 0 -- -- 87
2020-09-15 02:00:00 22.3 0 Calma 9 Norte 0 -- -- 84
2020-09-15 01:00:00 23.1 4 Sudeste 8 Sudeste 0 -- -- 83
2020-09-15 00:00:00 23.6 4 Sudeste 23 Sudeste 0 -- -- 82
2020-09-14 23:00:00 23.9 9 Sudeste 25 Sudeste 0 -- -- 81
2020-09-14 22:00:00 23.9 10 Sudeste 22 Sudeste 0 -- -- 81
2020-09-14 21:00:00 24.1 13 Sudeste 32 Sudeste 0 -- -- 81
2020-09-14 20:00:00 24.6 17 Sudeste 38 Sudeste 0 -- -- 78
2020-09-14 19:00:00 25.7 19 Sudeste 41 Sudeste 0 -- -- 73
2020-09-14 18:00:00 26.4 18 Sudeste 42 Sudeste 0 -- -- 70
2020-09-14 17:00:00 26.8 24 Sudeste 45 Sudeste 0 -- -- 69
2020-09-14 16:00:00 27 23 Sudeste 46 Sudeste 0 -- -- 66
2020-09-14 15:00:00 27.2 22 Sudeste 37 Sur 0 -- -- 65
2020-09-14 14:00:00 27.4 18 Sudeste 43 Sudeste 0 -- -- 63
2020-09-14 13:00:00 27.2 21 Sudeste 47 Sudeste 0 -- -- 61
2020-09-14 12:00:00 27 16 Sudeste 43 Este 0 -- -- 60
2020-09-14 11:00:00 26.4 16 Sudeste 35 Sudeste 0 -- -- 63
2020-09-14 10:00:00 25.6 12 Sudeste 27 Este 0 -- -- 64
2020-09-14 09:00:00 24.4 5 Sur 15 Sudeste 0 -- -- 69
2020-09-14 08:00:00 24.5 9 Sudeste 19 Sudeste 0 -- -- 65
2020-09-14 07:00:00 25.1 10 Sudeste 26 Este 0 -- -- 61
2020-09-14 06:00:00 25 7 Sudeste 22 Sur 0 -- -- 61
2020-09-14 05:00:00 25.2 12 Sudeste 30 Sudeste 0 -- -- 61
2020-09-14 04:00:00 25.3 11 Sudeste 36 Sudeste 0 -- -- 60
2020-09-14 03:00:00 25.5 17 Sudeste 34 Sudeste 0 -- -- 61
2020-09-14 02:00:00 25.6 13 Sudeste 24 Sudeste 0 -- -- 59
2020-09-14 01:00:00 24.7 9 Sur 26 Sudeste 0 -- -- 65
2020-09-14 00:00:00 24.7 12 Sudeste 28 Sudeste 0 -- -- 67
2020-09-13 23:00:00 24.8 8 Sudeste 15 Este 0 -- -- 65
2020-09-13 22:00:00 24.6 3 Sudeste 16 Sur 0 -- -- 65
2020-09-13 21:00:00 25.1 9 Sudeste 29 Sudeste 0 -- -- 62
2020-09-13 20:00:00 26.3 15 Sudeste 36 Sudeste 0 -- -- 58
2020-09-13 19:00:00 27.3 14 Sudeste 42 Este 0 -- -- 56
2020-09-13 18:00:00 28.5 18 Sudeste 45 Este 0 -- -- 52
2020-09-13 17:00:00 28.8 28 Sudeste 51 Este 0 -- -- 50
2020-09-13 16:00:00 29.5 22 Este 46 Este 0 -- -- 48
2020-09-13 15:00:00 29.4 25 Sudeste 53 Este 0 -- -- 47
2020-09-13 14:00:00 29.4 29 Este 50 Este 0 -- -- 46
2020-09-13 13:00:00 28.9 19 Sudeste 45 Sudeste 0 -- -- 49
2020-09-13 12:00:00 28.1 21 Sudeste 42 Sudeste 0 -- -- 52
2020-09-13 11:00:00 27.4 19 Sudeste 37 Este 0 -- -- 52
2020-09-13 10:00:00 26.5 14 Sudeste 29 Sudeste 0 -- -- 54
2020-09-13 09:00:00 25.9 9 Sudeste 27 Sudeste 0 -- -- 54
2020-09-13 08:00:00 25.7 11 Sudeste 23 Sudeste 0 -- -- 55
2020-09-13 07:00:00 25.4 10 Sudeste 23 Sudeste 0 -- -- 55
2020-09-13 06:00:00 25.3 11 Sudeste 25 Sudeste 0 -- -- 55
2020-09-13 05:00:00 24.2 10 Sudeste 21 Sudeste 0 -- -- 61
2020-09-13 04:00:00 24.4 6 Sur 29 Sudeste 0 -- -- 65
2020-09-13 03:00:00 25 11 Sudeste 24 Sudeste 0 -- -- 60
2020-09-13 02:00:00 25.3 10 Sudeste 28 Este 0 -- -- 59
2020-09-13 01:00:00 25.2 10 Sudeste 21 Sudeste 0 -- -- 55
2020-09-13 00:00:00 25.1 5 Sur 26 Sudeste 0 -- -- 57
2020-09-12 23:00:00 25.7 8 Sudeste 26 Sudeste 0 -- -- 54
2020-09-12 22:00:00 26.3 11 Sudeste 30 Sudeste 0 -- -- 49
2020-09-12 21:00:00 26.6 12 Sudeste 32 Sudeste 0 -- -- 47
2020-09-12 20:00:00 27.6 9 Sudeste 32 Sur 0 -- -- 44
2020-09-12 19:00:00 28.1 14 Sudeste 41 Sudeste 0 -- -- 45
2020-09-12 18:00:00 28.5 24 Sudeste 45 Este 0 -- -- 46
2020-09-12 17:00:00 29 22 Sudeste 44 Sudeste 0 -- -- 43
2020-09-12 16:00:00 30.5 21 Sudeste 50 Sudeste 0 -- -- 38
2020-09-12 15:00:00 30.3 25 Sudeste 51 Sudeste 0 -- -- 40
2020-09-12 14:00:00 30.1 26 Este 49 Este 0 -- -- 40
2020-09-12 13:00:00 30.3 23 Sudeste 50 Sudeste 0 -- -- 40
2020-09-12 12:00:00 29.6 19 Sudeste 44 Sudeste 0 -- -- 41
2020-09-12 11:00:00 27.4 13 Sudeste 24 Este 0 -- -- 42
2020-09-12 10:00:00 19.6 3 Noroeste 5 Nordeste 0 -- -- 76
2020-09-12 09:00:00 15.5 0 Calma 6 Norte 0 -- -- 86
2020-09-12 08:00:00 14.3 2 Nordeste 8 Nordeste 0 -- -- 89
2020-09-12 07:00:00 14.7 0 Calma 7 Nordeste 0 -- -- 90
2020-09-12 06:00:00 14.9 0 Calma 7 Este 0 -- -- 90
2020-09-12 05:00:00 15.2 3 Nordeste 8 Este 0 -- -- 90
2020-09-12 04:00:00 15.9 4 Este 7 Norte 0 -- -- 90
2020-09-12 03:00:00 16.4 3 Nordeste 7 Nordeste 0 -- -- 90
2020-09-12 02:00:00 17.3 0 Calma 5 Este 0 -- -- 88
2020-09-12 01:00:00 18.1 4 Norte 10 Norte 0 -- -- 86
2020-09-12 00:00:00 19 3 Norte 12 Nordeste 0 -- -- 83
2020-09-11 23:00:00 20.1 6 Nordeste 7 Este 0 -- -- 83
2020-09-11 22:00:00 22.3 0 Calma 10 Sur 0 -- -- 83
2020-09-11 21:00:00 23.2 3 Sudeste 14 Sur 0 -- -- 77
2020-09-11 20:00:00 24.5 9 Sudeste 30 Sudeste 0 -- -- 61
2020-09-11 19:00:00 25.7 18 Sudeste 36 Sudeste 0 -- -- 59
2020-09-11 18:00:00 27 22 Sudeste 46 Sudeste 0 -- -- 56
2020-09-11 17:00:00 27.4 18 Sudeste 37 Sudeste 0 -- -- 56
2020-09-11 16:00:00 27.3 20 Sudeste 36 Sudeste 0 -- -- 53
2020-09-11 15:00:00 27.6 22 Sudeste 37 Sudeste 0 -- -- 53
2020-09-11 14:00:00 26.9 24 Sudeste 40 Sudeste 0 -- -- 58
2020-09-11 13:00:00 27.2 21 Sudeste 37 Sudeste 0 -- -- 53
2020-09-11 12:00:00 27.1 17 Sudeste 28 Sudeste 0 -- -- 51
2020-09-11 11:00:00 22.9 4 Noroeste 6 Oeste 0 -- -- 65
2020-09-11 10:00:00 18.9 2 Noroeste 4 Oeste 0 -- -- 75
2020-09-11 09:00:00 15.3 2 Este 4 Este 0 -- -- 86
2020-09-11 08:00:00 13.2 3 Norte 7 Nordeste 0 -- -- 90
2020-09-11 07:00:00 13.1 2 Sudeste 4 Sudeste 0 -- -- 89
2020-09-11 06:00:00 13.5 3 Norte 6 Este 0 -- -- 89
2020-09-11 05:00:00 14.2 3 Nordeste 5 Nordeste 0 -- -- 86
2020-09-11 04:00:00 14.8 3 Nordeste 6 Nordeste 0 -- -- 84
2020-09-11 03:00:00 15.5 3 Nordeste 8 Nordeste 0 -- -- 83
2020-09-11 02:00:00 16.1 2 Este 7 Nordeste 0 -- -- 81
2020-09-11 01:00:00 16.9 3 Nordeste 7 Nordeste 0 -- -- 78
2020-09-11 00:00:00 17.8 5 Nordeste 6 Nordeste 0 -- -- 74
2020-09-10 23:00:00 19.7 4 Este 8 Nordeste 0 -- -- 70
2020-09-10 22:00:00 21.7 4 Nordeste 9 Sudeste 0 -- -- 70
2020-09-10 21:00:00 23.7 5 Sudeste 16 Sudeste 0 -- -- 65
2020-09-10 20:00:00 25.9 7 Sudeste 20 Sudeste 0 -- -- 56
2020-09-10 19:00:00 28.4 8 Sur 20 Sudeste 0 -- -- 50
2020-09-10 18:00:00 28.7 10 Sudeste 24 Sudeste 0 -- -- 46
2020-09-10 17:00:00 29 14 Sudeste 27 Sudeste 0 -- -- 47
2020-09-10 16:00:00 29.4 16 Sudeste 27 Sudeste 0 -- -- 45
2020-09-10 15:00:00 29.7 15 Sudeste 24 Sudeste 0 -- -- 46
2020-09-10 14:00:00 29.7 13 Sudeste 25 Sudeste 0 -- -- 40
2020-09-10 13:00:00 29 11 Sudeste 19 Sudeste 0 -- -- 42
2020-09-10 12:00:00 26.8 7 Sur 14 Sudoeste 0 -- -- 48
2020-09-10 11:00:00 22.9 3 Oeste 6 Oeste 0 -- -- 61
2020-09-10 10:00:00 18.9 0 Calma 4 Norte 0 -- -- 74
2020-09-10 09:00:00 15 3 Este 8 Nordeste 0 -- -- 89
2020-09-10 08:00:00 13.2 0 Calma 8 Nordeste 0 -- -- 93
2020-09-10 07:00:00 13.9 2 Este 6 Nordeste 0 -- -- 93
2020-09-10 06:00:00 14.8 4 Nordeste 9 Nordeste 0 -- -- 93
2020-09-10 05:00:00 15.3 3 Este 8 Nordeste 0 -- -- 93
2020-09-10 04:00:00 15.9 4 Este 8 Nordeste 0 -- -- 92
2020-09-10 03:00:00 16.6 3 Este 6 Este 0 -- -- 90
2020-09-10 02:00:00 17.6 4 Nordeste 9 Nordeste 0 -- -- 89
2020-09-10 01:00:00 18.1 4 Nordeste 8 Nordeste 0 -- -- 88
2020-09-10 00:00:00 19 4 Norte 8 Nordeste 0 -- -- 85
2020-09-09 23:00:00 19.9 5 Nordeste 8 Nordeste 0 -- -- 83
2020-09-09 22:00:00 21.6 0 Calma 8 Sur 0 -- -- 82
2020-09-09 21:00:00 22.6 4 Sudeste 23 Sudeste 0 -- -- 77
2020-09-09 20:00:00 24.2 12 Sudeste 24 Sur 0 -- -- 66
2020-09-09 19:00:00 25.9 14 Sudeste 31 Sur 0 -- -- 55
2020-09-09 18:00:00 26.9 15 Sudeste 32 Sudeste 0 -- -- 51
2020-09-09 17:00:00 27.4 19 Sudeste 38 Sudeste 0 -- -- 47
2020-09-09 16:00:00 27.4 24 Sudeste 42 Sudeste 0 -- -- 47
2020-09-09 15:00:00 27.6 20 Sudeste 43 Sudeste 0 -- -- 49
2020-09-09 14:00:00 27.4 22 Sudeste 42 Sudeste 0 -- -- 45
2020-09-09 13:00:00 27.6 17 Sudeste 40 Este 0 -- -- 40
2020-09-09 12:00:00 26.9 21 Este 39 Este 0 -- -- 41
2020-09-09 11:00:00 26.2 17 Este 37 Este 0 -- -- 45
2020-09-09 10:00:00 24.6 16 Sudeste 33 Este 0 -- -- 57
2020-09-09 09:00:00 23 12 Sudeste 21 Sudeste 0 -- -- 71
2020-09-09 08:00:00 21.4 8 Sudeste 29 Sudeste 0 -- -- 61
2020-09-09 07:00:00 17.5 4 Este 10 Sudeste 0 -- -- 72
2020-09-09 06:00:00 22.2 8 Este 27 Sudeste 0 -- -- 57
2020-09-09 05:00:00 22.3 11 Este 28 Este 0 -- -- 60
2020-09-09 04:00:00 22.2 11 Sudeste 31 Sudeste 0 -- -- 67
2020-09-09 03:00:00 22.7 17 Sudeste 35 Sudeste 0 -- -- 67
2020-09-09 02:00:00 22.9 18 Este 36 Este 0 -- -- 65
2020-09-09 01:00:00 23.1 21 Sudeste 35 Este 0 -- -- 62
2020-09-09 00:00:00 23.4 18 Sudeste 29 Sudeste 0 -- -- 57
2020-09-08 23:00:00 23.1 13 Sudeste 32 Este 0 -- -- 60
2020-09-08 22:00:00 23.1 14 Sudeste 35 Sudeste 0 -- -- 69
2020-09-08 21:00:00 23.2 18 Sudeste 35 Este 0 -- -- 73
2020-09-08 20:00:00 24.1 21 Sudeste 39 Sudeste 0 -- -- 69
2020-09-08 19:00:00 25.2 25 Sudeste 47 Sudeste 0 -- -- 61
2020-09-08 18:00:00 25.8 27 Sudeste 52 Este 0 -- -- 60
2020-09-08 17:00:00 25.5 31 Este 52 Este 0 -- -- 65
2020-09-08 16:00:00 25.1 27 Este 52 Sudeste 0 -- -- 70
2020-09-08 15:00:00 25.7 28 Este 54 Este 0 -- -- 69
2020-09-08 14:00:00 26 31 Este 50 Sudeste 0 -- -- 67
2020-09-08 13:00:00 26.9 26 Sudeste 53 Este 0 -- -- 65
2020-09-08 12:00:00 26.1 30 Este 55 Este 0 -- -- 63
2020-09-08 11:00:00 25.6 25 Sudeste 46 Sudeste 0 -- -- 68
2020-09-08 10:00:00 24.8 24 Este 46 Sudeste 0 -- -- 70
2020-09-08 09:00:00 23.9 18 Sudeste 36 Este 0 -- -- 73
2020-09-08 08:00:00 23.3 18 Sudeste 33 Este 0 -- -- 78
2020-09-08 07:00:00 23.2 13 Sudeste 29 Sudeste 0 -- -- 81
2020-09-08 06:00:00 23.3 10 Sudeste 31 Sudeste 0 -- -- 76
2020-09-08 05:00:00 23.3 13 Sudeste 34 Sudeste 0 -- -- 74
2020-09-08 04:00:00 22.9 10 Sudeste 24 Sudeste 0 -- -- 75
2020-09-08 03:00:00 22.8 8 Sudeste 27 Sudeste 0 -- -- 80
2020-09-08 02:00:00 23.1 15 Sudeste 32 Este 0 -- -- 83
2020-09-08 01:00:00 23.3 11 Sudeste 20 Sudeste 0 -- -- 84
2020-09-08 00:00:00 22.3 4 Sur 12 Sur 0 -- -- 81
2020-09-07 23:00:00 22.9 0 Calma 4 Sur 0 -- -- 74
2020-09-07 22:00:00 24.3 0 Calma 7 Sudoeste 0 -- -- 66
2020-09-07 21:00:00 26.9 3 Sudeste 12 Sudeste 0 -- -- 56
2020-09-07 20:00:00 30.1 4 Sudeste 17 Sudeste 0 -- -- 38
2020-09-07 19:00:00 30.9 10 Sudeste 19 Sudeste 0 -- -- 44
2020-09-07 18:00:00 30.8 14 Sudeste 24 Sudeste 0 -- -- 47
2020-09-07 17:00:00 31.7 14 Sudeste 27 Sudeste 0 -- -- 47
2020-09-07 16:00:00 32.9 15 Sudeste 29 Sur 0 -- -- 44
2020-09-07 15:00:00 33.2 14 Sudeste 23 Sudeste 0 -- -- 43
2020-09-07 14:00:00 32.6 7 Sudeste 20 Sudeste 0 -- -- 42
2020-09-07 13:00:00 30.1 5 Sudoeste 14 Sudoeste 0 -- -- 48
2020-09-07 12:00:00 27.7 6 Sudoeste 11 Sudoeste 0 -- -- 55
2020-09-07 11:00:00 24.8 3 Sudoeste 6 Oeste 0 -- -- 64
2020-09-07 10:00:00 20.6 0 Calma 4 Noroeste 0 -- -- 78
2020-09-07 09:00:00 16.8 0 Calma 5 Nordeste 0 -- -- 89
2020-09-07 08:00:00 14.4 4 Nordeste 5 Nordeste 0 -- -- 92
2020-09-07 07:00:00 14.9 2 Este 4 Este 0 -- -- 91
2020-09-07 06:00:00 15.5 4 Nordeste 6 Nordeste 0 -- -- 90
2020-09-07 05:00:00 16.1 4 Nordeste 9 Este 0 -- -- 90
2020-09-07 04:00:00 16.3 3 Nordeste 5 Nordeste 0 -- -- 87
2020-09-07 03:00:00 17.1 2 Norte 6 Nordeste 0 -- -- 86
2020-09-07 02:00:00 17.6 3 Nordeste 6 Este 0 -- -- 83
2020-09-07 01:00:00 18.7 2 Este 8 Nordeste 0 -- -- 80
2020-09-07 00:00:00 20.1 2 Norte 8 Norte 0 -- -- 75
2020-09-06 23:00:00 21.8 2 Norte 10 Sudeste 0 -- -- 70
2020-09-06 22:00:00 23.3 6 Sudeste 15 Sudeste 0 -- -- 65
2020-09-06 21:00:00 24.3 8 Sudeste 23 Sudeste 0 -- -- 63
2020-09-06 20:00:00 25.5 13 Sudeste 37 Sudeste 0 -- -- 61
2020-09-06 19:00:00 26.4 17 Sudeste 39 Sudeste 0 -- -- 59
2020-09-06 18:00:00 26.8 20 Sudeste 42 Este 0 -- -- 59
2020-09-06 17:00:00 27.1 25 Sudeste 44 Sudeste 0 -- -- 58
2020-09-06 16:00:00 27.6 22 Sudeste 45 Este 0 -- -- 58
2020-09-06 15:00:00 27.8 23 Sudeste 52 Sudeste 0 -- -- 57
2020-09-06 14:00:00 27.7 21 Sudeste 46 Sudeste 0 -- -- 57
2020-09-06 13:00:00 27.1 23 Sudeste 46 Sudeste 0 -- -- 58
2020-09-06 12:00:00 26.4 23 Sudeste 42 Sudeste 0 -- -- 59
2020-09-06 11:00:00 25.2 22 Sudeste 37 Este 0 -- -- 67
2020-09-06 10:00:00 22.2 9 Este 22 Sudeste 0 -- -- 83
2020-09-06 09:00:00 16.8 0 Calma 4 Este 0 -- -- 88
2020-09-06 08:00:00 15 2 Nordeste 6 Nordeste 0 -- -- 91
2020-09-06 07:00:00 15.3 0 Calma 5 Este 0 -- -- 90
2020-09-06 06:00:00 16 2 Nordeste 9 Norte 0 -- -- 89
2020-09-06 05:00:00 16.2 3 Nordeste 5 Nordeste 0 -- -- 87
2020-09-06 04:00:00 17.1 2 Nordeste 6 Este 0 -- -- 87
2020-09-06 03:00:00 17.5 2 Nordeste 7 Nordeste 0 -- -- 84
2020-09-06 02:00:00 18.7 0 Calma 6 Noroeste 0 -- -- 83
2020-09-06 01:00:00 19.9 3 Norte 19 Sudeste 0 -- -- 78
2020-09-06 00:00:00 23 9 Sudeste 23 Este 0 -- -- 65
2020-09-05 23:00:00 22.7 8 Sudeste 20 Sudeste 0 -- -- 71
2020-09-05 22:00:00 22.9 14 Sudeste 25 Sudeste 0 -- -- 72
2020-09-05 21:00:00 23.2 10 Sudeste 27 Sudeste 0 -- -- 73
2020-09-05 20:00:00 24.5 15 Sudeste 35 Sudeste 0 -- -- 67
2020-09-05 19:00:00 25.9 20 Sudeste 42 Sudeste 0 -- -- 62
2020-09-05 18:00:00 26.8 21 Sudeste 46 Este 0 -- -- 57
2020-09-05 17:00:00 27 26 Sudeste 43 Sudeste 0 -- -- 58
2020-09-05 16:00:00 27.3 25 Sudeste 43 Sudeste 0 -- -- 59
2020-09-05 15:00:00 27.5 22 Sudeste 44 Sur 0 -- -- 57
2020-09-05 14:00:00 27.6 21 Sudeste 47 Sudeste 0 -- -- 57
2020-09-05 13:00:00 27.4 21 Sudeste 49 Sudeste 0 -- -- 55
2020-09-05 12:00:00 26.8 21 Sudeste 42 Este 0 -- -- 58
2020-09-05 11:00:00 25.6 23 Sudeste 42 Sudeste 0 -- -- 64
2020-09-05 10:00:00 24.6 20 Este 39 Sudeste 0 -- -- 70
2020-09-05 09:00:00 23.2 14 Sudeste 30 Sudeste 0 -- -- 76
2020-09-05 08:00:00 22.6 16 Sudeste 31 Este 0 -- -- 77
2020-09-05 07:00:00 22.7 14 Sudeste 31 Este 0 -- -- 76
2020-09-05 06:00:00 21.7 16 Este 30 Este 0 -- -- 78
2020-09-05 05:00:00 16.2 4 Noroeste 6 Noroeste 0 -- -- 81
2020-09-05 04:00:00 17.2 3 Norte 8 Norte 0 -- -- 75
2020-09-05 03:00:00 18.6 5 Noroeste 26 Sudeste 0 -- -- 74
2020-09-05 02:00:00 22.9 13 Sudeste 34 Sudeste 0 -- -- 72
2020-09-05 01:00:00 23.5 13 Sudeste 27 Este 0 -- -- 66
2020-09-05 00:00:00 23.7 13 Sudeste 26 Sudeste 0 -- -- 60
2020-09-04 23:00:00 23.5 9 Sudeste 23 Sudeste 0 -- -- 63
2020-09-04 22:00:00 23.9 14 Sudeste 28 Sudeste 0 -- -- 63
2020-09-04 21:00:00 23.9 15 Sudeste 32 Sudeste 0 -- -- 74
2020-09-04 20:00:00 25 21 Sudeste 37 Este 0 -- -- 70
2020-09-04 19:00:00 26 24 Este 45 Este 0 -- -- 65
2020-09-04 18:00:00 26.8 19 Este 41 Sudeste 0 -- -- 64
2020-09-04 17:00:00 27 24 Este 50 Este 0 -- -- 61
2020-09-04 16:00:00 27.5 22 Este 48 Sudeste 0 -- -- 58
2020-09-04 15:00:00 27.2 27 Este 58 Este 0 -- -- 59
2020-09-04 14:00:00 27.3 28 Este 48 Sudeste 0 -- -- 57
2020-09-04 13:00:00 27.1 27 Este 49 Este 0 -- -- 58
2020-09-04 12:00:00 26.1 31 Sudeste 56 Este 0 -- -- 62
2020-09-04 11:00:00 25.2 28 Sudeste 48 Este 0 -- -- 65
2020-09-04 10:00:00 24.3 17 Sudeste 39 Sudeste 0 -- -- 68
2020-09-04 09:00:00 23.3 14 Sudeste 35 Sudeste 0 -- -- 71
2020-09-04 08:00:00 22.6 14 Sudeste 35 Sudeste 0 -- -- 72
2020-09-04 07:00:00 22.7 17 Sudeste 35 Sudeste 0 -- -- 73
2020-09-04 06:00:00 22.8 17 Sudeste 39 Este 0 -- -- 74
2020-09-04 05:00:00 23.1 19 Sudeste 38 Sudeste 0 -- -- 72
2020-09-04 04:00:00 23.2 20 Sudeste 37 Este 0 -- -- 71
2020-09-04 03:00:00 23.3 17 Sudeste 43 Este 0 -- -- 70
2020-09-04 02:00:00 23.4 20 Sudeste 39 Sudeste 0 -- -- 72
2020-09-04 01:00:00 24.2 20 Este 37 Este 0 -- -- 58
2020-09-04 00:00:00 25.2 17 Sudeste 35 Este 0 -- -- 38
2020-09-03 23:00:00 25.7 17 Sudeste 38 Este 0 -- -- 36
2020-09-03 22:00:00 25 14 Sudeste 36 Este 0 -- -- 47
2020-09-03 21:00:00 25 16 Sudeste 45 Sudeste 0 -- -- 54
2020-09-03 20:00:00 25.8 26 Sudeste 51 Sudeste 0 -- -- 57
2020-09-03 19:00:00 26.4 30 Sudeste 57 Sudeste 0 -- -- 60
2020-09-03 18:00:00 27.2 35 Sudeste 60 Sudeste 0 -- -- 56
2020-09-03 17:00:00 28 36 Este 63 Este 0 -- -- 50
2020-09-03 16:00:00 28.6 31 Este 62 Este 0 -- -- 47
2020-09-03 15:00:00 27.8 33 Este 58 Este 0 -- -- 54
2020-09-03 14:00:00 27.4 37 Este 60 Este 0 -- -- 56
2020-09-03 13:00:00 27.7 28 Sudeste 56 Este 0 -- -- 59
2020-09-03 12:00:00 27.1 28 Sudeste 54 Este 0 -- -- 59
2020-09-03 11:00:00 26.5 21 Sudeste 44 Sudeste 0 -- -- 60
2020-09-03 10:00:00 25.1 26 Este 43 Sudeste 0 -- -- 65
2020-09-03 09:00:00 23.9 23 Este 42 Este 0 -- -- 71
2020-09-03 08:00:00 22.7 14 Este 37 Sudeste 0 -- -- 76
2020-09-03 07:00:00 22.6 13 Este 30 Este 0 -- -- 77
2020-09-03 06:00:00 22.6 12 Sudeste 30 Sudeste 0 -- -- 75
2020-09-03 05:00:00 19.6 9 Sudeste 22 Este 0 -- -- 82
2020-09-03 04:00:00 15.9 3 Noroeste 7 Noroeste 0 -- -- 82
2020-09-03 03:00:00 16.1 3 Nordeste 8 Este 0 -- -- 83
2020-09-03 02:00:00 16.6 3 Este 8 Nordeste 0 -- -- 81
2020-09-03 01:00:00 16.9 3 Nordeste 6 Norte 0 -- -- 79
2020-09-03 00:00:00 18.6 4 Nordeste 7 Nordeste 0 -- -- 74
2020-09-02 23:00:00 20.2 6 Nordeste 10 Nordeste 0 -- -- 71
2020-09-02 22:00:00 22.2 3 Noroeste 14 Sur 0 -- -- 67
2020-09-02 21:00:00 23.5 9 Sur 32 Sudeste 0 -- -- 64
2020-09-02 20:00:00 24.9 18 Sudeste 36 Sudeste 0 -- -- 57
2020-09-02 19:00:00 25.7 19 Sudeste 44 Sudeste 0 -- -- 57
2020-09-02 18:00:00 26.8 28 Sudeste 50 Sudeste 0 -- -- 46
2020-09-02 17:00:00 27.6 21 Sudeste 41 Este 0 -- -- 45
2020-09-02 16:00:00 27.9 17 Sur 36 Sudeste 0 -- -- 50
2020-09-02 15:00:00 27.7 18 Sudeste 37 Sudeste 0 -- -- 55
2020-09-02 14:00:00 27.8 15 Sudeste 28 Sudeste 0 -- -- 53
2020-09-02 13:00:00 26.8 14 Sudeste 26 Sudeste 0 -- -- 59
2020-09-02 12:00:00 26 10 Sudeste 24 Sur 0 -- -- 63
2020-09-02 11:00:00 23.8 4 Sudoeste 8 Sudoeste 0 -- -- 69
2020-09-02 10:00:00 20.2 3 Noroeste 9 Noroeste 0 -- -- 73
2020-09-02 09:00:00 16.6 0 Calma 4 Este 0 -- -- 82
2020-09-02 08:00:00 15.8 2 Sur 4 Norte 0 -- -- 84
2020-09-02 07:00:00 16.1 0 Calma 6 Nordeste 0 -- -- 86
2020-09-02 06:00:00 14.7 3 Nordeste 6 Nordeste 0 -- -- 90
2020-09-02 05:00:00 13.9 4 Este 7 Nordeste 0 -- -- 90
2020-09-02 04:00:00 14.5 5 Nordeste 6 Nordeste 0 -- -- 87
2020-09-02 03:00:00 15.1 4 Nordeste 8 Nordeste 0 -- -- 87
2020-09-02 02:00:00 15.9 4 Este 6 Nordeste 0 -- -- 84
2020-09-02 01:00:00 17.3 0 Calma 5 Nordeste 0 -- -- 81
2020-09-02 00:00:00 18.5 3 Nordeste 6 Norte 0 -- -- 76
2020-09-01 23:00:00 20.1 4 Nordeste 10 Nordeste 0 -- -- 71
2020-09-01 22:00:00 22.2 3 Nordeste 10 Sudeste 0 -- -- 73
2020-09-01 21:00:00 23.9 6 Sudeste 14 Sudeste 0 -- -- 63
2020-09-01 20:00:00 25.3 9 Sudeste 19 Sudeste 0 -- -- 57
2020-09-01 19:00:00 27.2 10 Sudeste 22 Sudeste 0 -- -- 51
2020-09-01 18:00:00 27.6 13 Sudeste 24 Sudeste 0 -- -- 40
2020-09-01 17:00:00 27.7 12 Sudeste 22 Sur 0 -- -- 44
2020-09-01 16:00:00 27.9 13 Sudeste 24 Sudeste 0 -- -- 41
2020-09-01 15:00:00 26.7 12 Sudeste 27 Sudeste 0 -- -- 51
2020-09-01 14:00:00 27 12 Sudeste 28 Sudeste 0 -- -- 48
2020-09-01 13:00:00 27.6 14 Sudeste 27 Sudeste 0 -- -- 44
2020-09-01 12:00:00 26.7 10 Sudeste 17 Este 0 -- -- 39
2020-09-01 11:00:00 22.8 3 Noroeste 6 Oeste 0 -- -- 55
2020-09-01 10:00:00 17.9 2 Sur 8 Este 0 -- -- 68
2020-09-01 09:00:00 14.5 0 Calma 6 Nordeste 0 -- -- 80
2020-09-01 08:00:00 12.7 4 Nordeste 6 Nordeste 0 -- -- 84
2020-09-01 07:00:00 13 0 Calma 6 Norte 0 -- -- 83
2020-09-01 06:00:00 13.3 3 Nordeste 6 Este 0 -- -- 85
2020-09-01 05:00:00 14 2 Nordeste 5 Nordeste 0 -- -- 84
2020-09-01 04:00:00 14.4 3 Nordeste 6 Nordeste 0 -- -- 86
2020-09-01 03:00:00 15.5 4 Nordeste 8 Nordeste 0 -- -- 84
2020-09-01 02:00:00 16.5 3 Este 10 Nordeste 0 -- -- 81
2020-09-01 01:00:00 18.1 3 Nordeste 20 Este 0 -- -- 78
2020-09-01 00:00:00 22.4 8 Este 23 Sudeste 0 -- -- 63
2020-08-31 23:00:00 22.5 11 Este 23 Sudeste 0 -- -- 63
2020-08-31 22:00:00 22.6 14 Sudeste 33 Sudeste 0 -- -- 69
2020-08-31 21:00:00 23.2 19 Sudeste 32 Este 0 -- -- 65
2020-08-31 20:00:00 25.3 13 Sudeste 35 Sudeste 0 -- -- 59
2020-08-31 19:00:00 26.4 19 Sudeste 44 Sudeste 0 -- -- 56
2020-08-31 18:00:00 27 27 Este 46 Este 0 -- -- 52
2020-08-31 17:00:00 27.1 29 Este 55 Sudeste 0 -- -- 54
2020-08-31 16:00:00 27.1 34 Sudeste 54 Este 0 -- -- 56
2020-08-31 15:00:00 27.8 29 Este 52 Este 0 -- -- 45
2020-08-31 14:00:00 27.5 30 Sudeste 50 Este 0 -- -- 51
2020-08-31 13:00:00 27.2 24 Este 52 Este 0 -- -- 56
2020-08-31 12:00:00 26.6 26 Este 58 Este 0 -- -- 57
2020-08-31 11:00:00 25.6 22 Este 54 Sudeste 0 -- -- 63
2020-08-31 10:00:00 25 18 Este 49 Sudeste 0 -- -- 65
2020-08-31 09:00:00 23.6 21 Este 40 Sudeste 0 -- -- 71
2020-08-31 08:00:00 17.1 5 Norte 18 Nordeste 0 -- -- 89
2020-08-31 07:00:00 15.8 5 Norte 12 Noroeste 0 -- -- 90
2020-08-31 06:00:00 15.4 4 Noroeste 9 Norte 0 -- -- 90
2020-08-31 05:00:00 16 2 Nordeste 7 Norte 0 -- -- 87
2020-08-31 04:00:00 16.2 3 Nordeste 8 Norte 0 -- -- 87
2020-08-31 03:00:00 16.9 4 Nordeste 6 Nordeste 0 -- -- 85
2020-08-31 02:00:00 17.4 3 Nordeste 8 Norte 0 -- -- 84
2020-08-31 01:00:00 18.3 4 Nordeste 8 Este 0 -- -- 80
2020-08-31 00:00:00 19.3 3 Norte 10 Nordeste 0 -- -- 77
2020-08-30 23:00:00 20.6 6 Nordeste 9 Nordeste 0 -- -- 75
2020-08-30 22:00:00 22.4 3 Noroeste 17 Sudeste 0 -- -- 73
2020-08-30 21:00:00 24 10 Sudeste 25 Sudeste 0 -- -- 67
2020-08-30 20:00:00 25.8 13 Sudeste 34 Sudeste 0 -- -- 56
2020-08-30 19:00:00 27 17 Sudeste 36 Sudeste 0 -- -- 49
2020-08-30 18:00:00 27.6 23 Sudeste 41 Sudeste 0 -- -- 43
2020-08-30 17:00:00 28.5 23 Sudeste 46 Este 0 -- -- 41
2020-08-30 16:00:00 29.2 28 Este 49 Este 0 -- -- 31
2020-08-30 15:00:00 28.9 29 Este 49 Sudeste 0 -- -- 36
2020-08-30 14:00:00 29.1 28 Sudeste 47 Este 0 -- -- 34
2020-08-30 13:00:00 28 23 Este 59 Este 0 -- -- 38
2020-08-30 12:00:00 27.9 25 Este 51 Este 0 -- -- 35
2020-08-30 11:00:00 26.1 14 Este 32 Este 0 -- -- 37
2020-08-30 10:00:00 19.6 2 Norte 7 Noroeste 0 -- -- 48
2020-08-30 09:00:00 15.8 2 Nordeste 9 Norte 0 -- -- 52
2020-08-30 08:00:00 14.5 2 Norte 9 Nordeste 0 -- -- 57
2020-08-30 07:00:00 15.2 5 Norte 11 Nordeste 0 -- -- 55
2020-08-30 06:00:00 14.7 5 Este 10 Este 0 -- -- 58
2020-08-30 05:00:00 15.2 6 Este 18 Este 0 -- -- 56
2020-08-30 04:00:00 14 2 Norte 14 Nordeste 0 -- -- 67
2020-08-30 03:00:00 14.2 4 Nordeste 10 Este 0 -- -- 69
2020-08-30 02:00:00 15.2 5 Nordeste 9 Nordeste 0 -- -- 67
2020-08-30 01:00:00 16.6 7 Este 9 Este 0 -- -- 61
2020-08-30 00:00:00 20.5 2 Este 17 Noroeste 0 -- -- 54
2020-08-29 23:00:00 22.3 4 Nordeste 25 Noroeste 0 -- -- 49
2020-08-29 22:00:00 23.8 13 Oeste 19 Oeste 0 -- -- 44
2020-08-29 21:00:00 25.2 13 Oeste 33 Oeste 0 -- -- 41
2020-08-29 20:00:00 28.7 14 Noroeste 35 Noroeste 0 -- -- 28
2020-08-29 19:00:00 29.4 18 Noroeste 43 Noroeste 0 -- -- 27
2020-08-29 18:00:00 29.3 18 Noroeste 42 Noroeste 0 -- -- 28
2020-08-29 17:00:00 28.9 17 Noroeste 39 Oeste 0 -- -- 26
2020-08-29 16:00:00 28.3 23 Oeste 42 Oeste 0 -- -- 28
2020-08-29 15:00:00 27.4 26 Noroeste 41 Noroeste 0 -- -- 30
2020-08-29 14:00:00 27.1 25 Noroeste 44 Oeste 0 -- -- 29
2020-08-29 13:00:00 26.4 18 Oeste 37 Oeste 0 -- -- 38
2020-08-29 12:00:00 24.2 22 Oeste 41 Oeste 0 -- -- 45
2020-08-29 11:00:00 23.2 17 Oeste 31 Oeste 0 -- -- 46
2020-08-29 10:00:00 21.8 12 Noroeste 25 Norte 0 -- -- 47
2020-08-29 09:00:00 19.9 3 Sur 12 Sudoeste 0 -- -- 52
2020-08-29 08:00:00 18.1 5 Oeste 26 Oeste 0 -- -- 58
2020-08-29 07:00:00 19.1 14 Oeste 29 Oeste 0 -- -- 55
2020-08-29 06:00:00 19.8 7 Noroeste 19 Noroeste 0 -- -- 53
2020-08-29 05:00:00 20.8 9 Noroeste 14 Noroeste 0 -- -- 52
2020-08-29 04:00:00 21.5 8 Noroeste 19 Noroeste 0 -- -- 60
2020-08-29 03:00:00 21.5 6 Noroeste 15 Oeste 0 -- -- 68
2020-08-29 02:00:00 20.8 2 Sur 7 Oeste 0 -- -- 80
2020-08-29 01:00:00 22.2 2 Sur 12 Sudoeste 0 -- -- 77
2020-08-29 00:00:00 23.5 3 Oeste 11 Sudoeste 0 -- -- 73
2020-08-28 23:00:00 24.7 4 Noroeste 25 Noroeste 0 -- -- 69
2020-08-28 22:00:00 25.4 14 Noroeste 24 Oeste 0 -- -- 68
2020-08-28 21:00:00 26.9 13 Oeste 32 Oeste 0 -- -- 62
2020-08-28 20:00:00 28.7 19 Oeste 39 Oeste 0 -- -- 56
2020-08-28 19:00:00 30.1 22 Oeste 40 Oeste 0 -- -- 51
2020-08-28 18:00:00 31.6 24 Oeste 47 Oeste 0 -- -- 46
2020-08-28 17:00:00 32.1 25 Oeste 41 Oeste 0 -- -- 45
2020-08-28 16:00:00 31.5 24 Oeste 42 Oeste 0 -- -- 48
2020-08-28 15:00:00 30.9 21 Oeste 42 Oeste 0 -- -- 50
2020-08-28 14:00:00 30 24 Oeste 40 Oeste 0 -- -- 53
2020-08-28 13:00:00 29.2 22 Oeste 39 Oeste 0 -- -- 55
2020-08-28 12:00:00 26.6 26 Oeste 40 Oeste 0 -- -- 62
2020-08-28 11:00:00 25.9 18 Oeste 31 Oeste 0 -- -- 64
2020-08-28 10:00:00 24.8 12 Noroeste 28 Oeste 0 -- -- 72
2020-08-28 09:00:00 19 5 Este 10 Nordeste 0 -- -- 69
2020-08-28 08:00:00 15.5 3 Nordeste 6 Este 0 -- -- 80
2020-08-28 07:00:00 16.1 0 Calma 4 Nordeste 0 -- -- 79
2020-08-28 06:00:00 16.6 3 Nordeste 6 Nordeste 0 -- -- 76
2020-08-28 05:00:00 17.2 0 Calma 7 Nordeste 0 -- -- 75
2020-08-28 04:00:00 18.2 0 Calma 8 Nordeste 0 -- -- 73
2020-08-28 03:00:00 18.7 3 Nordeste 8 Nordeste 0 -- -- 70
2020-08-28 02:00:00 19.5 4 Norte 8 Este 0 -- -- 71
2020-08-28 01:00:00 20.2 2 Este 9 Nordeste 0 -- -- 69
2020-08-28 00:00:00 21.4 4 Nordeste 7 Nordeste 0 -- -- 65
2020-08-27 23:00:00 22.8 4 Este 8 Nordeste 0 -- -- 61
2020-08-27 22:00:00 25.2 0 Calma 6 Sudoeste 0 -- -- 57
2020-08-27 21:00:00 29 4 Sudoeste 14 Sudeste 0 -- -- 51
2020-08-27 20:00:00 32.3 10 Sudeste 19 Sudeste 0 -- -- 37
2020-08-27 19:00:00 34.2 12 Sudeste 23 Sudeste 0 -- -- 34
2020-08-27 18:00:00 34.9 9 Sudeste 22 Sudeste 0 -- -- 36
2020-08-27 17:00:00 34.7 10 Sudeste 25 Sudeste 0 -- -- 38
2020-08-27 16:00:00 34.6 12 Sudeste 23 Sudeste 0 -- -- 41
2020-08-27 15:00:00 34.6 12 Sudeste 22 Sudeste 0 -- -- 43
2020-08-27 14:00:00 34.2 9 Sudeste 18 Sudeste 0 -- -- 45
2020-08-27 13:00:00 32.5 8 Sur 15 Sudoeste 0 -- -- 50
2020-08-27 12:00:00 29.6 6 Sudoeste 14 Sudeste 0 -- -- 55
2020-08-27 11:00:00 27 4 Sudoeste 9 Sur 0 -- -- 63
2020-08-27 10:00:00 22.8 3 Oeste 4 Oeste 0 -- -- 77
2020-08-27 09:00:00 19.3 2 Este 5 Este 0 -- -- 88
2020-08-27 08:00:00 17.3 4 Este 5 Este 0 -- -- 91
2020-08-27 07:00:00 17.7 4 Nordeste 6 Nordeste 0 -- -- 91
2020-08-27 06:00:00 18.3 2 Norte 6 Nordeste 0 -- -- 90
2020-08-27 05:00:00 18.8 2 Este 6 Nordeste 0 -- -- 88
2020-08-27 04:00:00 19.5 2 Nordeste 5 Nordeste 0 -- -- 85
2020-08-27 03:00:00 19.9 2 Norte 9 Nordeste 0 -- -- 84
2020-08-27 02:00:00 19.9 6 Nordeste 7 Nordeste 0 -- -- 80
2020-08-27 01:00:00 21.1 0 Calma 6 Este 0 -- -- 76
2020-08-27 00:00:00 22.1 3 Este 5 Este 0 -- -- 72
2020-08-26 23:00:00 23.8 2 Nordeste 6 Este 0 -- -- 68
2020-08-26 22:00:00 26.3 2 Nordeste 5 Nordeste 0 -- -- 62
2020-08-26 21:00:00 30.1 0 Calma 8 Sudeste 0 -- -- 53
2020-08-26 20:00:00 31.7 3 Sur 14 Sudeste 0 -- -- 49
2020-08-26 19:00:00 32 9 Sudeste 21 Sudeste 0 -- -- 48
2020-08-26 18:00:00 32.2 12 Sudeste 23 Sudeste 0 -- -- 51
2020-08-26 17:00:00 33 11 Sudeste 23 Sudeste 0 -- -- 50
2020-08-26 16:00:00 33.1 11 Sudeste 23 Este 0 -- -- 51
2020-08-26 15:00:00 32.4 12 Sudeste 24 Sur 0 -- -- 50
2020-08-26 14:00:00 32.5 8 Sur 23 Sudeste 0 -- -- 53
2020-08-26 13:00:00 31.5 11 Sur 19 Sur 0 -- -- 54
2020-08-26 12:00:00 28.7 6 Norte 11 Noroeste 0 -- -- 69
2020-08-26 11:00:00 26.2 4 Oeste 10 Sudoeste 0 -- -- 75
2020-08-26 10:00:00 23 2 Sudoeste 8 Sudeste 0 -- -- 80
2020-08-26 09:00:00 19.6 0 Calma 4 Nordeste 0 -- -- 92
2020-08-26 08:00:00 16.9 3 Norte 6 Nordeste 0 -- -- 95
2020-08-26 07:00:00 16.8 5 Nordeste 6 Nordeste 0 -- -- 94
2020-08-26 06:00:00 17.4 3 Este 5 Nordeste 0 -- -- 94
2020-08-26 05:00:00 18.1 4 Este 7 Nordeste 0 -- -- 93
2020-08-26 04:00:00 18.6 5 Nordeste 8 Nordeste 0 -- -- 92
2020-08-26 03:00:00 19.5 2 Nordeste 6 Norte 0 -- -- 90
2020-08-26 02:00:00 20.1 3 Este 5 Nordeste 0 -- -- 89
2020-08-26 01:00:00 20.8 3 Este 6 Nordeste 0 -- -- 86
2020-08-26 00:00:00 21.8 4 Nordeste 6 Nordeste 0 -- -- 84
2020-08-25 23:00:00 23.3 3 Este 5 Este 0 -- -- 81
2020-08-25 22:00:00 25 0 Calma 8 Sudeste 0 -- -- 78
2020-08-25 21:00:00 26.1 5 Sur 22 Sudeste 0 -- -- 73
2020-08-25 20:00:00 27.8 13 Sudeste 22 Sudeste 0 -- -- 66
2020-08-25 19:00:00 29.2 12 Sudeste 26 Sudeste 0 -- -- 61
2020-08-25 18:00:00 30.5 10 Sudeste 32 Sudeste 0 -- -- 56
2020-08-25 17:00:00 30.6 15 Sudeste 33 Sudeste 0 -- -- 56
2020-08-25 16:00:00 30.9 16 Sudeste 44 Sudeste 0 -- -- 56
2020-08-25 15:00:00 30.4 21 Sudeste 40 Sudeste 0 -- -- 55
2020-08-25 14:00:00 30.1 22 Sudeste 39 Sudeste 0 -- -- 56
2020-08-25 13:00:00 29.8 18 Sudeste 35 Sudeste 0 -- -- 60
2020-08-25 12:00:00 29 15 Sudeste 30 Sudeste 0 -- -- 64
2020-08-25 11:00:00 27.3 14 Sudeste 26 Sudeste 0 -- -- 72
2020-08-25 10:00:00 25 3 Norte 5 Noroeste 0 -- -- 80
2020-08-25 09:00:00 22 0 Calma 5 Nordeste 0 -- -- 89
2020-08-25 08:00:00 19.5 3 Nordeste 6 Nordeste 0 -- -- 94
2020-08-25 07:00:00 20 2 Nordeste 6 Nordeste 0 -- -- 93
2020-08-25 06:00:00 20.3 0 Calma 6 Norte 0 -- -- 92
2020-08-25 05:00:00 20.7 3 Nordeste 5 Noroeste 0 -- -- 92
2020-08-25 04:00:00 21.1 2 Norte 6 Norte 0 -- -- 91
2020-08-25 03:00:00 21.1 4 Nordeste 8 Nordeste 0 -- -- 90
2020-08-25 02:00:00 21.9 2 Norte 6 Nordeste 0 -- -- 89
2020-08-25 01:00:00 22.9 2 Nordeste 8 Sudeste 0 -- -- 87
2020-08-25 00:00:00 23.6 5 Nordeste 8 Nordeste 0 -- -- 85
2020-08-24 23:00:00 24.6 4 Sur 14 Sur 0 -- -- 85
2020-08-24 22:00:00 25.1 7 Sudeste 22 Sudeste 0 -- -- 83
2020-08-24 21:00:00 25.8 14 Sudeste 29 Sudeste 0 -- -- 79
2020-08-24 20:00:00 27.4 16 Sudeste 33 Sur 0 -- -- 70
2020-08-24 19:00:00 28.8 19 Sudeste 41 Sudeste 0 -- -- 64
2020-08-24 18:00:00 30.1 20 Sudeste 40 Sudeste 0 -- -- 60
2020-08-24 17:00:00 30.5 23 Sudeste 48 Este 0 -- -- 58
2020-08-24 16:00:00 30.6 27 Sudeste 46 Sudeste 0 -- -- 57
2020-08-24 15:00:00 30.7 22 Sudeste 48 Este 0 -- -- 59
2020-08-24 14:00:00 30.1 24 Sudeste 44 Este 0 -- -- 61
2020-08-24 13:00:00 29.9 21 Sudeste 42 Sudeste 0 -- -- 62
2020-08-24 12:00:00 29.1 22 Sudeste 37 Sudeste 0 -- -- 64
2020-08-24 11:00:00 28.1 18 Sudeste 30 Sudeste 0 -- -- 69
2020-08-24 10:00:00 25.6 3 Oeste 5 Sudoeste 0 -- -- 77
2020-08-24 09:00:00 23.1 2 Oeste 5 Este 0 -- -- 83
2020-08-24 08:00:00 21.6 0 Calma 3 Oeste 0 -- -- 84
2020-08-24 07:00:00 21.4 0 Calma 5 Nordeste 0 -- -- 86
2020-08-24 06:00:00 21.2 4 Nordeste 7 Norte 0 -- -- 86
2020-08-24 05:00:00 21.4 2 Nordeste 6 Noroeste 0 -- -- 86
2020-08-24 04:00:00 20 3 Norte 6 Noroeste 0 -- -- 91
2020-08-24 03:00:00 20 3 Este 6 Este 0 -- -- 87
2020-08-24 02:00:00 20.8 0 Calma 6 Nordeste 0 -- -- 85
2020-08-24 01:00:00 21.7 2 Norte 5 Nordeste 0 -- -- 83
2020-08-24 00:00:00 22.5 2 Nordeste 6 Nordeste 0 -- -- 80
2020-08-23 23:00:00 23.5 4 Nordeste 5 Nordeste 0 -- -- 79
2020-08-23 22:00:00 25.1 4 Sudoeste 9 Sur 0 -- -- 78
2020-08-23 21:00:00 26.3 5 Sur 19 Sudeste 0 -- -- 68
2020-08-23 20:00:00 28 12 Sudeste 24 Sur 0 -- -- 65
2020-08-23 19:00:00 29.8 16 Sudeste 26 Sudeste 0 -- -- 60
2020-08-23 18:00:00 31.7 11 Sur 23 Sudeste 0 -- -- 55
2020-08-23 17:00:00 31.9 11 Sudeste 27 Este 0 -- -- 56
2020-08-23 16:00:00 30.9 17 Sudeste 31 Sudeste 0 -- -- 59
2020-08-23 15:00:00 30.5 19 Sudeste 35 Este 0 -- -- 62
2020-08-23 14:00:00 30.7 18 Sudeste 32 Sudeste 0 -- -- 60
2020-08-23 13:00:00 31.1 16 Sudeste 28 Sudeste 0 -- -- 50
2020-08-23 12:00:00 32.5 7 Sudeste 14 Sudeste 0 -- -- 40
2020-08-23 11:00:00 28.7 6 Sur 10 Sur 0 -- -- 43
2020-08-23 10:00:00 24.4 2 Noroeste 4 Noroeste 0 -- -- 55
2020-08-23 09:00:00 20.2 0 Calma 5 Nordeste 0 -- -- 69
2020-08-23 08:00:00 16.7 2 Norte 6 Este 0 -- -- 80
2020-08-23 07:00:00 17.5 3 Este 6 Este 0 -- -- 78
2020-08-23 06:00:00 18.7 3 Nordeste 7 Nordeste 0 -- -- 76
2020-08-23 05:00:00 20 4 Nordeste 8 Nordeste 0 -- -- 73
2020-08-23 04:00:00 21.3 5 Nordeste 6 Nordeste 0 -- -- 72
2020-08-23 03:00:00 23.5 4 Noroeste 22 Sudeste 0 -- -- 68
2020-08-23 02:00:00 25 2 Este 10 Sudeste 0 -- -- 49
2020-08-23 01:00:00 26 2 Sudoeste 8 Sudoeste 0 -- -- 51
2020-08-23 00:00:00 27.6 3 Sur 8 Norte 0 -- -- 48
2020-08-22 23:00:00 29.1 3 Noroeste 15 Oeste 0 -- -- 48
2020-08-22 22:00:00 30.8 7 Oeste 25 Noroeste 0 -- -- 47
2020-08-22 21:00:00 33.3 11 Oeste 28 Oeste 0 -- -- 41
2020-08-22 20:00:00 35.7 17 Oeste 32 Oeste 0 -- -- 34
2020-08-22 19:00:00 38.4 15 Oeste 28 Oeste 0 -- -- 31
2020-08-22 18:00:00 39 14 Oeste 27 Oeste 0 -- -- 30
2020-08-22 17:00:00 38.9 8 Noroeste 30 Oeste 0 -- -- 35
2020-08-22 16:00:00 38.5 11 Noroeste 22 Noroeste 0 -- -- 32
2020-08-22 15:00:00 38 12 Noroeste 29 Noroeste 0 -- -- 31
2020-08-22 14:00:00 37.7 15 Oeste 30 Oeste 0 -- -- 35
2020-08-22 13:00:00 37.1 12 Noroeste 30 Norte 0 -- -- 34
2020-08-22 12:00:00 35.2 15 Norte 25 Norte 0 -- -- 36
2020-08-22 11:00:00 32.5 10 Norte 18 Norte 0 -- -- 44
2020-08-22 10:00:00 26.6 3 Norte 5 Norte 0 -- -- 60
2020-08-22 09:00:00 21.4 4 Nordeste 8 Este 0 -- -- 71
2020-08-22 08:00:00 17.6 7 Este 9 Este 0 -- -- 79
2020-08-22 07:00:00 17.8 5 Este 9 Este 0 -- -- 79
2020-08-22 06:00:00 18.3 4 Este 10 Nordeste 0 -- -- 77
2020-08-22 05:00:00 18.5 4 Este 10 Este 0 -- -- 77
2020-08-22 04:00:00 18.8 5 Sudeste 9 Este 0 -- -- 75
2020-08-22 03:00:00 19 4 Este 10 Nordeste 0 -- -- 75
2020-08-22 02:00:00 19.6 6 Este 10 Nordeste 0 -- -- 72
2020-08-22 01:00:00 21.4 2 Sur 10 Nordeste 0 -- -- 68
2020-08-22 00:00:00 23.4 4 Este 15 Oeste 0 -- -- 64
2020-08-21 23:00:00 26.3 4 Sur 18 Oeste 0 -- -- 59
2020-08-21 22:00:00 29.4 11 Oeste 22 Oeste 0 -- -- 50
2020-08-21 21:00:00 32.3 9 Noroeste 23 Noroeste 0 -- -- 40
2020-08-21 20:00:00 35 13 Noroeste 24 Noroeste 0 -- -- 37
2020-08-21 19:00:00 36.6 11 Noroeste 24 Noroeste 0 -- -- 32
2020-08-21 18:00:00 37.5 13 Oeste 29 Oeste 0 -- -- 29
2020-08-21 17:00:00 37.4 17 Oeste 31 Oeste 0 -- -- 29
2020-08-21 16:00:00 37.5 15 Oeste 26 Oeste 0 -- -- 28
2020-08-21 15:00:00 37.1 14 Oeste 28 Oeste 0 -- -- 29
2020-08-21 14:00:00 35.6 16 Oeste 30 Oeste 0 -- -- 34
2020-08-21 13:00:00 35.5 12 Sudoeste 21 Sudoeste 0 -- -- 30
2020-08-21 12:00:00 32.3 4 Sudoeste 10 Sudoeste 0 -- -- 40
2020-08-21 11:00:00 27.5 2 Norte 6 Sur 0 -- -- 49
2020-08-21 10:00:00 21.3 0 Calma 5 Nordeste 0 -- -- 63
2020-08-21 09:00:00 16 4 Este 6 Este 0 -- -- 59
2020-08-21 08:00:00 12 6 Nordeste 8 Nordeste 0 -- -- 67
2020-08-21 07:00:00 12.9 0 Calma 7 Nordeste 0 -- -- 64
2020-08-21 06:00:00 13.6 0 Calma 10 Nordeste 0 -- -- 62
2020-08-21 05:00:00 15 6 Este 12 Nordeste 0 -- -- 60
2020-08-21 04:00:00 15.8 6 Este 10 Este 0 -- -- 59
2020-08-21 03:00:00 16.6 6 Este 10 Nordeste 0 -- -- 59
2020-08-21 02:00:00 17.9 2 Nordeste 9 Este 0 -- -- 57
2020-08-21 01:00:00 19 3 Nordeste 9 Nordeste 0 -- -- 56
2020-08-21 00:00:00 20.4 4 Nordeste 5 Nordeste 0 -- -- 51
2020-08-20 23:00:00 22.4 4 Nordeste 8 Este 0 -- -- 45
2020-08-20 22:00:00 24.8 3 Nordeste 6 Nordeste 0 -- -- 42
2020-08-20 21:00:00 29.1 2 Sur 12 Este 0 -- -- 35
2020-08-20 20:00:00 31.3 7 Sudeste 23 Sudeste 0 -- -- 29
2020-08-20 19:00:00 32.8 14 Sudeste 26 Sudeste 0 -- -- 27
2020-08-20 18:00:00 34.5 14 Sudeste 30 Sudeste 0 -- -- 24
2020-08-20 17:00:00 35.5 15 Sudeste 25 Sudeste 0 -- -- 25
2020-08-20 16:00:00 35.5 12 Sudeste 30 Sudeste 0 -- -- 25
2020-08-20 15:00:00 34.6 15 Sudeste 31 Sudeste 0 -- -- 29
2020-08-20 14:00:00 34.8 14 Sudeste 28 Sudeste 0 -- -- 26
2020-08-20 13:00:00 34.5 4 Sudeste 12 Este 0 -- -- 29
2020-08-20 12:00:00 30.7 4 Noroeste 7 Noroeste 0 -- -- 39
2020-08-20 11:00:00 26.8 3 Noroeste 6 Sudoeste 0 -- -- 47
2020-08-20 10:00:00 22.7 0 Calma 4 Sudeste 0 -- -- 55
2020-08-20 09:00:00 18 3 Este 6 Nordeste 0 -- -- 70
2020-08-20 08:00:00 14.7 0 Calma 5 Nordeste 0 -- -- 80
2020-08-20 07:00:00 15.2 5 Nordeste 8 Nordeste 0 -- -- 78
2020-08-20 06:00:00 15.9 3 Nordeste 7 Este 0 -- -- 76
2020-08-20 05:00:00 16.4 3 Nordeste 6 Nordeste 0 -- -- 74
2020-08-20 04:00:00 17.1 5 Nordeste 9 Nordeste 0 -- -- 72
2020-08-20 03:00:00 18.1 0 Calma 5 Nordeste 0 -- -- 69
2020-08-20 02:00:00 18.8 5 Nordeste 10 Nordeste 0 -- -- 67
2020-08-20 01:00:00 19.7 0 Calma 10 Nordeste 0 -- -- 67
2020-08-20 00:00:00 20.8 3 Este 6 Nordeste 0 -- -- 64